sensor_id;sensor_type;location;lat;lon;timestamp;P1;durP1;ratioP1;P2;durP2;ratioP2
65315;SDS011;51920;53.952;10.292;2023-05-10T00:01:48;5.35;;;4.10;;
65315;SDS011;51920;53.952;10.292;2023-05-10T00:04:14;6.07;;;4.10;;
65315;SDS011;51920;53.952;10.292;2023-05-10T00:06:41;6.47;;;4.35;;
65315;SDS011;51920;53.952;10.292;2023-05-10T00:09:08;8.00;;;4.03;;
65315;SDS011;51920;53.952;10.292;2023-05-10T00:11:35;6.85;;;4.30;;
65315;SDS011;51920;53.952;10.292;2023-05-10T00:14:02;6.88;;;4.30;;
65315;SDS011;51920;53.952;10.292;2023-05-10T00:16:29;7.13;;;4.15;;
65315;SDS011;51920;53.952;10.292;2023-05-10T00:18:56;6.15;;;4.32;;
65315;SDS011;51920;53.952;10.292;2023-05-10T00:21:23;5.23;;;3.90;;
65315;SDS011;51920;53.952;10.292;2023-05-10T00:23:50;6.20;;;4.18;;
65315;SDS011;51920;53.952;10.292;2023-05-10T00:26:16;6.82;;;4.63;;
65315;SDS011;51920;53.952;10.292;2023-05-10T00:28:48;8.07;;;4.20;;
65315;SDS011;51920;53.952;10.292;2023-05-10T00:31:16;6.25;;;4.25;;
65315;SDS011;51920;53.952;10.292;2023-05-10T00:33:43;8.00;;;5.07;;
65315;SDS011;51920;53.952;10.292;2023-05-10T00:36:11;6.55;;;4.43;;
65315;SDS011;51920;53.952;10.292;2023-05-10T00:38:37;9.10;;;4.60;;
65315;SDS011;51920;53.952;10.292;2023-05-10T00:41:04;5.30;;;3.92;;
65315;SDS011;51920;53.952;10.292;2023-05-10T00:43:33;6.78;;;4.10;;
65315;SDS011;51920;53.952;10.292;2023-05-10T00:46:00;6.40;;;3.77;;
65315;SDS011;51920;53.952;10.292;2023-05-10T00:48:28;6.95;;;4.30;;
65315;SDS011;51920;53.952;10.292;2023-05-10T00:50:55;6.45;;;4.32;;
65315;SDS011;51920;53.952;10.292;2023-05-10T00:53:22;8.77;;;4.30;;
65315;SDS011;51920;53.952;10.292;2023-05-10T00:55:50;6.50;;;4.30;;
65315;SDS011;51920;53.952;10.292;2023-05-10T00:58:17;10.37;;;4.57;;
65315;SDS011;51920;53.952;10.292;2023-05-10T01:00:44;6.43;;;4.50;;
65315;SDS011;51920;53.952;10.292;2023-05-10T01:03:12;5.88;;;4.03;;
65315;SDS011;51920;53.952;10.292;2023-05-10T01:05:40;6.07;;;4.07;;
65315;SDS011;51920;53.952;10.292;2023-05-10T01:08:06;7.03;;;4.47;;
65315;SDS011;51920;53.952;10.292;2023-05-10T01:10:35;7.00;;;4.20;;
65315;SDS011;51920;53.952;10.292;2023-05-10T01:13:02;7.22;;;3.95;;
65315;SDS011;51920;53.952;10.292;2023-05-10T01:15:29;7.30;;;4.80;;
65315;SDS011;51920;53.952;10.292;2023-05-10T01:17:57;7.13;;;5.00;;
65315;SDS011;51920;53.952;10.292;2023-05-10T01:20:25;9.13;;;4.60;;
65315;SDS011;51920;53.952;10.292;2023-05-10T01:23:05;9.17;;;4.70;;
65315;SDS011;51920;53.952;10.292;2023-05-10T01:33:38;5.88;;;4.63;;
65315;SDS011;51920;53.952;10.292;2023-05-10T01:38:56;5.07;;;4.20;;
65315;SDS011;51920;53.952;10.292;2023-05-10T01:41:40;5.90;;;4.28;;
65315;SDS011;51920;53.952;10.292;2023-05-10T01:44:17;7.05;;;4.80;;
65315;SDS011;51920;53.952;10.292;2023-05-10T01:46:57;6.63;;;4.65;;
65315;SDS011;51920;53.952;10.292;2023-05-10T01:49:32;6.20;;;4.30;;
65315;SDS011;51920;53.952;10.292;2023-05-10T01:52:06;6.43;;;4.47;;
65315;SDS011;51920;53.952;10.292;2023-05-10T01:54:38;6.40;;;4.82;;
65315;SDS011;51920;53.952;10.292;2023-05-10T01:57:08;7.32;;;4.95;;
65315;SDS011;51920;53.952;10.292;2023-05-10T01:59:38;5.80;;;4.35;;
65315;SDS011;51920;53.952;10.292;2023-05-10T02:02:07;7.30;;;4.77;;
65315;SDS011;51920;53.952;10.292;2023-05-10T02:04:41;8.05;;;4.45;;
65315;SDS011;51920;53.952;10.292;2023-05-10T02:07:09;5.55;;;4.55;;
65315;SDS011;51920;53.952;10.292;2023-05-10T02:09:36;6.97;;;4.60;;
65315;SDS011;51920;53.952;10.292;2023-05-10T02:12:04;8.30;;;4.60;;
65315;SDS011;51920;53.952;10.292;2023-05-10T02:14:34;6.37;;;4.50;;
65315;SDS011;51920;53.952;10.292;2023-05-10T02:17:03;7.03;;;4.40;;
65315;SDS011;51920;53.952;10.292;2023-05-10T02:19:32;7.57;;;4.70;;
65315;SDS011;51920;53.952;10.292;2023-05-10T02:22:00;6.28;;;4.40;;
65315;SDS011;51920;53.952;10.292;2023-05-10T02:24:28;7.32;;;4.72;;
65315;SDS011;51920;53.952;10.292;2023-05-10T02:26:55;6.27;;;4.70;;
65315;SDS011;51920;53.952;10.292;2023-05-10T02:29:24;7.38;;;4.80;;
65315;SDS011;51920;53.952;10.292;2023-05-10T02:31:53;6.00;;;4.85;;
65315;SDS011;51920;53.952;10.292;2023-05-10T02:34:22;6.88;;;4.90;;
65315;SDS011;51920;53.952;10.292;2023-05-10T02:36:52;6.47;;;4.68;;
65315;SDS011;51920;53.952;10.292;2023-05-10T02:39:20;9.33;;;4.93;;
65315;SDS011;51920;53.952;10.292;2023-05-10T02:41:48;6.03;;;4.60;;
65315;SDS011;51920;53.952;10.292;2023-05-10T02:44:17;7.20;;;5.28;;
65315;SDS011;51920;53.952;10.292;2023-05-10T02:46:46;7.88;;;4.78;;
65315;SDS011;51920;53.952;10.292;2023-05-10T02:49:13;6.53;;;4.78;;
65315;SDS011;51920;53.952;10.292;2023-05-10T02:51:42;9.50;;;4.43;;
65315;SDS011;51920;53.952;10.292;2023-05-10T02:54:24;7.13;;;4.80;;
65315;SDS011;51920;53.952;10.292;2023-05-10T02:57:00;7.65;;;4.97;;
65315;SDS011;51920;53.952;10.292;2023-05-10T02:59:30;6.50;;;4.57;;
65315;SDS011;51920;53.952;10.292;2023-05-10T03:01:59;8.63;;;4.97;;
65315;SDS011;51920;53.952;10.292;2023-05-10T03:04:26;8.73;;;4.60;;
65315;SDS011;51920;53.952;10.292;2023-05-10T03:06:55;6.05;;;4.55;;
65315;SDS011;51920;53.952;10.292;2023-05-10T03:09:22;10.32;;;4.85;;
65315;SDS011;51920;53.952;10.292;2023-05-10T03:14:39;7.40;;;4.88;;
65315;SDS011;51920;53.952;10.292;2023-05-10T03:17:15;7.30;;;5.10;;
65315;SDS011;51920;53.952;10.292;2023-05-10T03:19:57;7.45;;;4.90;;
65315;SDS011;51920;53.952;10.292;2023-05-10T03:22:31;9.32;;;4.93;;
65315;SDS011;51920;53.952;10.292;2023-05-10T03:25:01;7.13;;;4.90;;
65315;SDS011;51920;53.952;10.292;2023-05-10T03:27:33;6.90;;;4.90;;
65315;SDS011;51920;53.952;10.292;2023-05-10T03:30:03;8.00;;;4.90;;
65315;SDS011;51920;53.952;10.292;2023-05-10T03:32:32;6.65;;;4.93;;
65315;SDS011;51920;53.952;10.292;2023-05-10T03:35:06;6.65;;;4.75;;
65315;SDS011;51920;53.952;10.292;2023-05-10T03:37:36;10.00;;;5.05;;
65315;SDS011;51920;53.952;10.292;2023-05-10T03:40:04;7.65;;;5.07;;
65315;SDS011;51920;53.952;10.292;2023-05-10T03:42:34;7.40;;;4.97;;
65315;SDS011;51920;53.952;10.292;2023-05-10T03:45:01;6.10;;;5.10;;
65315;SDS011;51920;53.952;10.292;2023-05-10T03:47:28;8.27;;;5.22;;
65315;SDS011;51920;53.952;10.292;2023-05-10T03:49:57;7.25;;;5.00;;
65315;SDS011;51920;53.952;10.292;2023-05-10T03:52:24;7.65;;;5.40;;
65315;SDS011;51920;53.952;10.292;2023-05-10T03:54:50;7.27;;;5.30;;
65315;SDS011;51920;53.952;10.292;2023-05-10T03:57:17;7.13;;;5.22;;
65315;SDS011;51920;53.952;10.292;2023-05-10T03:59:44;8.85;;;5.60;;
65315;SDS011;51920;53.952;10.292;2023-05-10T04:02:11;9.30;;;5.07;;
65315;SDS011;51920;53.952;10.292;2023-05-10T04:04:38;8.05;;;5.13;;
65315;SDS011;51920;53.952;10.292;2023-05-10T04:07:05;6.67;;;5.30;;
65315;SDS011;51920;53.952;10.292;2023-05-10T04:09:33;10.65;;;5.20;;
65315;SDS011;51920;53.952;10.292;2023-05-10T04:12:00;8.00;;;5.20;;
65315;SDS011;51920;53.952;10.292;2023-05-10T04:14:28;7.15;;;5.20;;
65315;SDS011;51920;53.952;10.292;2023-05-10T04:16:55;7.70;;;5.47;;
65315;SDS011;51920;53.952;10.292;2023-05-10T04:19:22;7.90;;;5.57;;
65315;SDS011;51920;53.952;10.292;2023-05-10T04:21:49;6.05;;;4.95;;
65315;SDS011;51920;53.952;10.292;2023-05-10T04:24:16;7.82;;;4.90;;
65315;SDS011;51920;53.952;10.292;2023-05-10T04:26:43;8.90;;;5.15;;
65315;SDS011;51920;53.952;10.292;2023-05-10T04:29:09;6.78;;;5.03;;
65315;SDS011;51920;53.952;10.292;2023-05-10T04:31:36;7.57;;;4.87;;
65315;SDS011;51920;53.952;10.292;2023-05-10T04:34:03;8.60;;;5.30;;
65315;SDS011;51920;53.952;10.292;2023-05-10T04:36:30;7.20;;;5.13;;
65315;SDS011;51920;53.952;10.292;2023-05-10T04:38:56;7.95;;;5.30;;
65315;SDS011;51920;53.952;10.292;2023-05-10T04:41:23;7.00;;;5.32;;
65315;SDS011;51920;53.952;10.292;2023-05-10T04:43:51;6.43;;;5.07;;
65315;SDS011;51920;53.952;10.292;2023-05-10T04:46:18;7.25;;;4.80;;
65315;SDS011;51920;53.952;10.292;2023-05-10T04:48:45;6.35;;;4.97;;
65315;SDS011;51920;53.952;10.292;2023-05-10T04:51:12;7.00;;;5.10;;
65315;SDS011;51920;53.952;10.292;2023-05-10T04:53:39;7.95;;;5.53;;
65315;SDS011;51920;53.952;10.292;2023-05-10T04:56:06;7.37;;;4.90;;
65315;SDS011;51920;53.952;10.292;2023-05-10T04:58:33;7.63;;;5.30;;
65315;SDS011;51920;53.952;10.292;2023-05-10T05:01:06;7.25;;;4.97;;
65315;SDS011;51920;53.952;10.292;2023-05-10T05:03:34;7.80;;;5.10;;
65315;SDS011;51920;53.952;10.292;2023-05-10T05:06:02;7.82;;;5.07;;
65315;SDS011;51920;53.952;10.292;2023-05-10T05:08:29;9.20;;;5.00;;
65315;SDS011;51920;53.952;10.292;2023-05-10T05:10:56;7.72;;;5.30;;
65315;SDS011;51920;53.952;10.292;2023-05-10T05:13:23;6.72;;;4.95;;
65315;SDS011;51920;53.952;10.292;2023-05-10T05:15:50;8.15;;;5.10;;
65315;SDS011;51920;53.952;10.292;2023-05-10T05:18:17;7.55;;;5.20;;
65315;SDS011;51920;53.952;10.292;2023-05-10T05:20:43;7.10;;;5.20;;
65315;SDS011;51920;53.952;10.292;2023-05-10T05:23:10;6.90;;;5.07;;
65315;SDS011;51920;53.952;10.292;2023-05-10T05:25:37;6.63;;;5.03;;
65315;SDS011;51920;53.952;10.292;2023-05-10T05:28:03;6.25;;;5.00;;
65315;SDS011;51920;53.952;10.292;2023-05-10T05:30:30;10.40;;;5.43;;
65315;SDS011;51920;53.952;10.292;2023-05-10T05:32:57;6.87;;;4.83;;
65315;SDS011;51920;53.952;10.292;2023-05-10T05:35:24;10.60;;;4.70;;
65315;SDS011;51920;53.952;10.292;2023-05-10T05:37:51;7.47;;;4.90;;
65315;SDS011;51920;53.952;10.292;2023-05-10T05:40:18;8.20;;;5.15;;
65315;SDS011;51920;53.952;10.292;2023-05-10T05:42:44;7.38;;;4.70;;
65315;SDS011;51920;53.952;10.292;2023-05-10T05:45:11;6.90;;;5.00;;
65315;SDS011;51920;53.952;10.292;2023-05-10T05:47:39;7.57;;;4.90;;
65315;SDS011;51920;53.952;10.292;2023-05-10T05:50:06;6.70;;;5.07;;
65315;SDS011;51920;53.952;10.292;2023-05-10T05:52:33;6.75;;;4.70;;
65315;SDS011;51920;53.952;10.292;2023-05-10T05:55:00;6.80;;;5.20;;
65315;SDS011;51920;53.952;10.292;2023-05-10T05:57:27;6.80;;;5.00;;
65315;SDS011;51920;53.952;10.292;2023-05-10T05:59:54;7.97;;;5.20;;
65315;SDS011;51920;53.952;10.292;2023-05-10T06:02:21;7.47;;;5.07;;
65315;SDS011;51920;53.952;10.292;2023-05-10T06:04:48;7.38;;;5.10;;
65315;SDS011;51920;53.952;10.292;2023-05-10T06:07:15;6.88;;;5.07;;
65315;SDS011;51920;53.952;10.292;2023-05-10T06:09:41;7.13;;;4.87;;
65315;SDS011;51920;53.952;10.292;2023-05-10T06:12:08;8.30;;;5.10;;
65315;SDS011;51920;53.952;10.292;2023-05-10T06:14:35;6.30;;;5.00;;
65315;SDS011;51920;53.952;10.292;2023-05-10T06:17:02;7.38;;;5.07;;
65315;SDS011;51920;53.952;10.292;2023-05-10T06:19:31;8.27;;;4.90;;
65315;SDS011;51920;53.952;10.292;2023-05-10T06:21:58;7.33;;;4.67;;
65315;SDS011;51920;53.952;10.292;2023-05-10T06:24:25;6.45;;;4.80;;
65315;SDS011;51920;53.952;10.292;2023-05-10T06:26:53;8.35;;;5.20;;
65315;SDS011;51920;53.952;10.292;2023-05-10T06:29:20;6.88;;;5.10;;
65315;SDS011;51920;53.952;10.292;2023-05-10T06:31:46;6.55;;;4.97;;
65315;SDS011;51920;53.952;10.292;2023-05-10T06:34:14;6.90;;;4.73;;
65315;SDS011;51920;53.952;10.292;2023-05-10T06:36:40;7.13;;;5.13;;
65315;SDS011;51920;53.952;10.292;2023-05-10T06:39:07;8.35;;;5.35;;
65315;SDS011;51920;53.952;10.292;2023-05-10T06:41:34;7.25;;;4.90;;
65315;SDS011;51920;53.952;10.292;2023-05-10T06:44:01;7.68;;;5.18;;
65315;SDS011;51920;53.952;10.292;2023-05-10T06:46:27;7.07;;;4.90;;
65315;SDS011;51920;53.952;10.292;2023-05-10T06:48:54;6.25;;;4.85;;
65315;SDS011;51920;53.952;10.292;2023-05-10T06:51:21;8.93;;;5.00;;
65315;SDS011;51920;53.952;10.292;2023-05-10T06:53:48;9.05;;;5.00;;
65315;SDS011;51920;53.952;10.292;2023-05-10T06:56:15;7.00;;;4.85;;
65315;SDS011;51920;53.952;10.292;2023-05-10T06:58:41;6.47;;;5.20;;
65315;SDS011;51920;53.952;10.292;2023-05-10T07:01:08;6.60;;;5.10;;
65315;SDS011;51920;53.952;10.292;2023-05-10T07:03:35;8.07;;;5.00;;
65315;SDS011;51920;53.952;10.292;2023-05-10T07:06:02;7.95;;;4.80;;
65315;SDS011;51920;53.952;10.292;2023-05-10T07:08:33;9.13;;;5.18;;
65315;SDS011;51920;53.952;10.292;2023-05-10T07:11:01;7.93;;;4.70;;
65315;SDS011;51920;53.952;10.292;2023-05-10T07:13:33;7.05;;;5.18;;
65315;SDS011;51920;53.952;10.292;2023-05-10T07:16:00;6.07;;;4.85;;
65315;SDS011;51920;53.952;10.292;2023-05-10T07:18:28;5.53;;;4.78;;
65315;SDS011;51920;53.952;10.292;2023-05-10T07:20:56;7.53;;;5.13;;
65315;SDS011;51920;53.952;10.292;2023-05-10T07:23:23;6.40;;;4.93;;
65315;SDS011;51920;53.952;10.292;2023-05-10T07:25:50;7.90;;;4.90;;
65315;SDS011;51920;53.952;10.292;2023-05-10T07:28:21;5.80;;;4.72;;
65315;SDS011;51920;53.952;10.292;2023-05-10T07:30:48;5.90;;;4.80;;
65315;SDS011;51920;53.952;10.292;2023-05-10T07:33:15;7.70;;;5.13;;
65315;SDS011;51920;53.952;10.292;2023-05-10T07:35:42;6.83;;;4.80;;
65315;SDS011;51920;53.952;10.292;2023-05-10T07:38:09;8.63;;;4.88;;
65315;SDS011;51920;53.952;10.292;2023-05-10T07:40:37;7.47;;;5.07;;
65315;SDS011;51920;53.952;10.292;2023-05-10T07:43:04;5.90;;;4.65;;
65315;SDS011;51920;53.952;10.292;2023-05-10T07:45:31;7.45;;;4.97;;
65315;SDS011;51920;53.952;10.292;2023-05-10T07:47:58;5.97;;;4.63;;
65315;SDS011;51920;53.952;10.292;2023-05-10T07:50:25;7.78;;;5.10;;
65315;SDS011;51920;53.952;10.292;2023-05-10T07:52:52;7.07;;;5.10;;
65315;SDS011;51920;53.952;10.292;2023-05-10T07:55:19;7.63;;;5.40;;
65315;SDS011;51920;53.952;10.292;2023-05-10T07:57:47;7.53;;;4.93;;
65315;SDS011;51920;53.952;10.292;2023-05-10T08:00:16;6.97;;;4.67;;
65315;SDS011;51920;53.952;10.292;2023-05-10T08:02:45;11.52;;;5.13;;
65315;SDS011;51920;53.952;10.292;2023-05-10T08:05:12;7.03;;;4.97;;
65315;SDS011;51920;53.952;10.292;2023-05-10T08:07:39;6.95;;;5.20;;
65315;SDS011;51920;53.952;10.292;2023-05-10T08:10:06;7.00;;;5.20;;
65315;SDS011;51920;53.952;10.292;2023-05-10T08:12:34;8.87;;;5.10;;
65315;SDS011;51920;53.952;10.292;2023-05-10T08:15:00;6.65;;;4.80;;
65315;SDS011;51920;53.952;10.292;2023-05-10T08:17:27;7.32;;;4.90;;
65315;SDS011;51920;53.952;10.292;2023-05-10T08:19:54;9.25;;;5.00;;
65315;SDS011;51920;53.952;10.292;2023-05-10T08:22:20;6.70;;;4.75;;
65315;SDS011;51920;53.952;10.292;2023-05-10T08:24:47;7.53;;;4.80;;
65315;SDS011;51920;53.952;10.292;2023-05-10T08:27:14;7.15;;;4.95;;
65315;SDS011;51920;53.952;10.292;2023-05-10T08:29:41;6.60;;;4.90;;
65315;SDS011;51920;53.952;10.292;2023-05-10T08:32:11;6.50;;;4.82;;
65315;SDS011;51920;53.952;10.292;2023-05-10T08:34:38;8.40;;;5.00;;
65315;SDS011;51920;53.952;10.292;2023-05-10T08:37:05;6.73;;;5.10;;
65315;SDS011;51920;53.952;10.292;2023-05-10T08:39:35;8.07;;;5.30;;
65315;SDS011;51920;53.952;10.292;2023-05-10T08:42:03;9.27;;;4.90;;
65315;SDS011;51920;53.952;10.292;2023-05-10T08:44:35;7.30;;;4.90;;
65315;SDS011;51920;53.952;10.292;2023-05-10T08:47:04;7.10;;;5.20;;
65315;SDS011;51920;53.952;10.292;2023-05-10T08:49:33;7.00;;;4.60;;
65315;SDS011;51920;53.952;10.292;2023-05-10T08:52:04;6.95;;;4.80;;
65315;SDS011;51920;53.952;10.292;2023-05-10T08:54:32;7.43;;;4.95;;
65315;SDS011;51920;53.952;10.292;2023-05-10T08:56:59;10.70;;;5.15;;
65315;SDS011;51920;53.952;10.292;2023-05-10T08:59:27;6.70;;;5.10;;
65315;SDS011;51920;53.952;10.292;2023-05-10T09:01:55;7.67;;;5.40;;
65315;SDS011;51920;53.952;10.292;2023-05-10T09:04:24;6.82;;;5.40;;
65315;SDS011;51920;53.952;10.292;2023-05-10T09:06:51;7.45;;;4.97;;
65315;SDS011;51920;53.952;10.292;2023-05-10T09:09:19;6.10;;;4.65;;
65315;SDS011;51920;53.952;10.292;2023-05-10T09:11:47;7.05;;;4.80;;
65315;SDS011;51920;53.952;10.292;2023-05-10T09:14:14;5.30;;;4.70;;
65315;SDS011;51920;53.952;10.292;2023-05-10T09:16:42;5.57;;;4.85;;
65315;SDS011;51920;53.952;10.292;2023-05-10T09:19:09;8.02;;;5.10;;
65315;SDS011;51920;53.952;10.292;2023-05-10T09:21:36;7.25;;;4.70;;
65315;SDS011;51920;53.952;10.292;2023-05-10T09:24:06;6.97;;;4.60;;
65315;SDS011;51920;53.952;10.292;2023-05-10T09:26:34;6.23;;;4.73;;
65315;SDS011;51920;53.952;10.292;2023-05-10T09:29:02;7.00;;;4.70;;
65315;SDS011;51920;53.952;10.292;2023-05-10T09:31:48;5.97;;;5.25;;
65315;SDS011;51920;53.952;10.292;2023-05-10T09:34:30;5.40;;;4.60;;
65315;SDS011;51920;53.952;10.292;2023-05-10T09:36:59;6.53;;;5.20;;
65315;SDS011;51920;53.952;10.292;2023-05-10T09:39:34;5.97;;;4.80;;
65315;SDS011;51920;53.952;10.292;2023-05-10T09:42:11;6.43;;;4.60;;
65315;SDS011;51920;53.952;10.292;2023-05-10T09:44:38;7.18;;;5.38;;
65315;SDS011;51920;53.952;10.292;2023-05-10T09:47:07;8.00;;;5.30;;
65315;SDS011;51920;53.952;10.292;2023-05-10T09:49:34;5.13;;;4.60;;
65315;SDS011;51920;53.952;10.292;2023-05-10T09:54:31;6.82;;;4.57;;
65315;SDS011;51920;53.952;10.292;2023-05-10T09:57:00;6.18;;;4.85;;
65315;SDS011;51920;53.952;10.292;2023-05-10T09:59:27;6.63;;;5.00;;
65315;SDS011;51920;53.952;10.292;2023-05-10T10:01:59;7.15;;;4.85;;
65315;SDS011;51920;53.952;10.292;2023-05-10T10:04:26;7.40;;;4.70;;
65315;SDS011;51920;53.952;10.292;2023-05-10T10:07:00;6.50;;;4.97;;
65315;SDS011;51920;53.952;10.292;2023-05-10T10:09:31;5.82;;;5.10;;
65315;SDS011;51920;53.952;10.292;2023-05-10T10:11:59;7.90;;;5.50;;
65315;SDS011;51920;53.952;10.292;2023-05-10T10:14:30;9.70;;;5.30;;
65315;SDS011;51920;53.952;10.292;2023-05-10T10:16:57;6.83;;;5.10;;
65315;SDS011;51920;53.952;10.292;2023-05-10T10:19:29;6.88;;;5.20;;
65315;SDS011;51920;53.952;10.292;2023-05-10T10:21:59;5.75;;;5.00;;
65315;SDS011;51920;53.952;10.292;2023-05-10T10:24:26;9.73;;;5.30;;
65315;SDS011;51920;53.952;10.292;2023-05-10T10:26:54;6.45;;;5.25;;
65315;SDS011;51920;53.952;10.292;2023-05-10T10:30:04;7.13;;;5.27;;
65315;SDS011;51920;53.952;10.292;2023-05-10T10:35:33;6.93;;;5.70;;
65315;SDS011;51920;53.952;10.292;2023-05-10T10:38:00;6.45;;;4.82;;
65315;SDS011;51920;53.952;10.292;2023-05-10T10:40:31;5.68;;;5.07;;
65315;SDS011;51920;53.952;10.292;2023-05-10T10:46:09;7.15;;;5.60;;
65315;SDS011;51920;53.952;10.292;2023-05-10T10:48:41;7.68;;;5.20;;
65315;SDS011;51920;53.952;10.292;2023-05-10T10:51:13;7.00;;;5.35;;
65315;SDS011;51920;53.952;10.292;2023-05-10T10:53:40;8.13;;;5.47;;
65315;SDS011;51920;53.952;10.292;2023-05-10T10:56:08;5.67;;;5.00;;
65315;SDS011;51920;53.952;10.292;2023-05-10T10:58:37;6.75;;;5.03;;
65315;SDS011;51920;53.952;10.292;2023-05-10T11:01:18;6.32;;;5.32;;
65315;SDS011;51920;53.952;10.292;2023-05-10T11:04:16;7.18;;;5.57;;
65315;SDS011;51920;53.952;10.292;2023-05-10T11:06:44;6.43;;;5.68;;
65315;SDS011;51920;53.952;10.292;2023-05-10T11:09:12;6.70;;;5.10;;
65315;SDS011;51920;53.952;10.292;2023-05-10T11:11:50;7.30;;;5.65;;
65315;SDS011;51920;53.952;10.292;2023-05-10T11:14:21;10.43;;;6.03;;
65315;SDS011;51920;53.952;10.292;2023-05-10T11:16:48;8.38;;;5.45;;
65315;SDS011;51920;53.952;10.292;2023-05-10T11:19:16;8.05;;;5.53;;
65315;SDS011;51920;53.952;10.292;2023-05-10T11:21:48;6.77;;;5.23;;
65315;SDS011;51920;53.952;10.292;2023-05-10T11:24:21;8.77;;;5.55;;
65315;SDS011;51920;53.952;10.292;2023-05-10T11:26:49;8.60;;;5.65;;
65315;SDS011;51920;53.952;10.292;2023-05-10T11:29:17;8.73;;;5.78;;
65315;SDS011;51920;53.952;10.292;2023-05-10T11:31:45;6.40;;;5.53;;
65315;SDS011;51920;53.952;10.292;2023-05-10T11:34:22;8.23;;;5.50;;
65315;SDS011;51920;53.952;10.292;2023-05-10T11:36:51;8.73;;;6.28;;
65315;SDS011;51920;53.952;10.292;2023-05-10T11:39:20;8.57;;;6.30;;
65315;SDS011;51920;53.952;10.292;2023-05-10T11:41:48;7.97;;;6.05;;
65315;SDS011;51920;53.952;10.292;2023-05-10T11:44:16;8.30;;;5.85;;
65315;SDS011;51920;53.952;10.292;2023-05-10T11:46:43;10.33;;;6.30;;
65315;SDS011;51920;53.952;10.292;2023-05-10T11:49:13;8.38;;;6.60;;
65315;SDS011;51920;53.952;10.292;2023-05-10T11:51:40;8.60;;;6.18;;
65315;SDS011;51920;53.952;10.292;2023-05-10T11:54:09;10.00;;;6.43;;
65315;SDS011;51920;53.952;10.292;2023-05-10T11:56:38;10.00;;;6.43;;
65315;SDS011;51920;53.952;10.292;2023-05-10T11:59:05;9.90;;;7.00;;
65315;SDS011;51920;53.952;10.292;2023-05-10T12:01:32;11.50;;;7.10;;
65315;SDS011;51920;53.952;10.292;2023-05-10T12:03:59;10.90;;;7.18;;
65315;SDS011;51920;53.952;10.292;2023-05-10T12:06:28;9.93;;;7.30;;
65315;SDS011;51920;53.952;10.292;2023-05-10T12:08:57;12.90;;;8.90;;
65315;SDS011;51920;53.952;10.292;2023-05-10T12:11:25;11.90;;;8.23;;
65315;SDS011;51920;53.952;10.292;2023-05-10T12:13:54;12.35;;;9.38;;
65315;SDS011;51920;53.952;10.292;2023-05-10T12:16:22;13.73;;;8.63;;
65315;SDS011;51920;53.952;10.292;2023-05-10T12:18:51;13.57;;;9.40;;
65315;SDS011;51920;53.952;10.292;2023-05-10T12:21:20;13.52;;;9.38;;
65315;SDS011;51920;53.952;10.292;2023-05-10T12:23:49;16.23;;;9.10;;
65315;SDS011;51920;53.952;10.292;2023-05-10T12:26:21;14.43;;;9.60;;
65315;SDS011;51920;53.952;10.292;2023-05-10T12:28:48;14.23;;;9.38;;
65315;SDS011;51920;53.952;10.292;2023-05-10T12:31:15;13.10;;;9.40;;
65315;SDS011;51920;53.952;10.292;2023-05-10T12:33:43;12.52;;;9.25;;
65315;SDS011;51920;53.952;10.292;2023-05-10T12:36:11;14.10;;;10.10;;
65315;SDS011;51920;53.952;10.292;2023-05-10T12:38:40;13.32;;;9.55;;
65315;SDS011;51920;53.952;10.292;2023-05-10T12:41:17;15.85;;;10.32;;
65315;SDS011;51920;53.952;10.292;2023-05-10T12:43:44;13.57;;;9.60;;
65315;SDS011;51920;53.952;10.292;2023-05-10T12:46:16;12.93;;;9.15;;
65315;SDS011;51920;53.952;10.292;2023-05-10T12:48:44;12.87;;;9.97;;
65315;SDS011;51920;53.952;10.292;2023-05-10T12:51:28;13.52;;;9.90;;
65315;SDS011;51920;53.952;10.292;2023-05-10T12:53:55;14.10;;;10.40;;
65315;SDS011;51920;53.952;10.292;2023-05-10T12:56:22;14.43;;;9.95;;
65315;SDS011;51920;53.952;10.292;2023-05-10T12:58:49;13.15;;;10.10;;
65315;SDS011;51920;53.952;10.292;2023-05-10T13:01:16;15.30;;;10.83;;
65315;SDS011;51920;53.952;10.292;2023-05-10T13:03:42;14.85;;;10.57;;
65315;SDS011;51920;53.952;10.292;2023-05-10T13:06:09;18.23;;;11.18;;
65315;SDS011;51920;53.952;10.292;2023-05-10T13:08:36;16.10;;;11.05;;
65315;SDS011;51920;53.952;10.292;2023-05-10T13:11:03;16.27;;;10.57;;
65315;SDS011;51920;53.952;10.292;2023-05-10T13:13:29;15.40;;;11.07;;
65315;SDS011;51920;53.952;10.292;2023-05-10T13:15:56;15.07;;;10.60;;
65315;SDS011;51920;53.952;10.292;2023-05-10T13:18:23;14.88;;;10.15;;
65315;SDS011;51920;53.952;10.292;2023-05-10T13:20:50;13.88;;;10.40;;
65315;SDS011;51920;53.952;10.292;2023-05-10T13:23:17;13.85;;;10.05;;
65315;SDS011;51920;53.952;10.292;2023-05-10T13:25:44;14.67;;;10.37;;
65315;SDS011;51920;53.952;10.292;2023-05-10T13:28:10;14.70;;;10.68;;
65315;SDS011;51920;53.952;10.292;2023-05-10T13:30:37;13.43;;;9.88;;
65315;SDS011;51920;53.952;10.292;2023-05-10T13:33:04;15.18;;;10.30;;
65315;SDS011;51920;53.952;10.292;2023-05-10T13:35:30;13.57;;;9.63;;
65315;SDS011;51920;53.952;10.292;2023-05-10T13:37:57;14.13;;;10.47;;
65315;SDS011;51920;53.952;10.292;2023-05-10T13:40:24;14.20;;;10.05;;
65315;SDS011;51920;53.952;10.292;2023-05-10T13:42:51;14.70;;;10.23;;
65315;SDS011;51920;53.952;10.292;2023-05-10T13:45:17;13.20;;;9.60;;
65315;SDS011;51920;53.952;10.292;2023-05-10T13:47:44;16.73;;;10.80;;
65315;SDS011;51920;53.952;10.292;2023-05-10T13:50:11;15.03;;;10.37;;
65315;SDS011;51920;53.952;10.292;2023-05-10T13:52:38;16.00;;;10.35;;
65315;SDS011;51920;53.952;10.292;2023-05-10T13:55:05;13.57;;;9.43;;
65315;SDS011;51920;53.952;10.292;2023-05-10T13:57:32;15.55;;;10.35;;
65315;SDS011;51920;53.952;10.292;2023-05-10T14:00:01;14.50;;;10.18;;
65315;SDS011;51920;53.952;10.292;2023-05-10T14:02:33;14.07;;;9.83;;
65315;SDS011;51920;53.952;10.292;2023-05-10T14:05:00;15.18;;;9.70;;
65315;SDS011;51920;53.952;10.292;2023-05-10T14:07:27;12.20;;;9.18;;
65315;SDS011;51920;53.952;10.292;2023-05-10T14:09:54;12.60;;;9.18;;
65315;SDS011;51920;53.952;10.292;2023-05-10T14:12:21;14.77;;;9.52;;
65315;SDS011;51920;53.952;10.292;2023-05-10T14:14:48;11.90;;;9.03;;
65315;SDS011;51920;53.952;10.292;2023-05-10T14:17:15;12.45;;;9.45;;
65315;SDS011;51920;53.952;10.292;2023-05-10T14:19:42;13.20;;;9.05;;
65315;SDS011;51920;53.952;10.292;2023-05-10T14:22:09;13.52;;;9.35;;
65315;SDS011;51920;53.952;10.292;2023-05-10T14:24:37;13.02;;;9.70;;
65315;SDS011;51920;53.952;10.292;2023-05-10T14:27:05;11.27;;;8.67;;
65315;SDS011;51920;53.952;10.292;2023-05-10T14:29:32;11.95;;;9.15;;
65315;SDS011;51920;53.952;10.292;2023-05-10T14:31:59;11.40;;;8.02;;
65315;SDS011;51920;53.952;10.292;2023-05-10T14:34:26;9.30;;;6.75;;
65315;SDS011;51920;53.952;10.292;2023-05-10T14:36:52;8.57;;;6.35;;
65315;SDS011;51920;53.952;10.292;2023-05-10T14:39:19;8.77;;;6.50;;
65315;SDS011;51920;53.952;10.292;2023-05-10T14:41:46;7.90;;;6.00;;
65315;SDS011;51920;53.952;10.292;2023-05-10T14:44:13;8.32;;;5.63;;
65315;SDS011;51920;53.952;10.292;2023-05-10T14:46:42;7.35;;;5.78;;
65315;SDS011;51920;53.952;10.292;2023-05-10T14:49:09;7.65;;;5.28;;
65315;SDS011;51920;53.952;10.292;2023-05-10T14:51:36;6.00;;;4.70;;
65315;SDS011;51920;53.952;10.292;2023-05-10T14:54:03;7.68;;;5.05;;
65315;SDS011;51920;53.952;10.292;2023-05-10T14:56:29;6.60;;;4.72;;
65315;SDS011;51920;53.952;10.292;2023-05-10T14:58:56;6.20;;;4.43;;
65315;SDS011;51920;53.952;10.292;2023-05-10T15:01:23;7.10;;;4.72;;